sensor_id;sensor_type;location;lat;lon;timestamp;temperature;humidity
14144;DHT22;7152;48.348;10.980;2023-12-22T15:30:53;5.90;99.90
14144;DHT22;7152;48.348;10.980;2023-12-22T15:33:19;5.90;99.90
14144;DHT22;7152;48.348;10.980;2023-12-22T15:35:45;5.90;99.90
14144;DHT22;7152;48.348;10.980;2023-12-22T15:38:11;5.90;99.90
14144;DHT22;7152;48.348;10.980;2023-12-22T15:40:39;6.00;99.90
14144;DHT22;7152;48.348;10.980;2023-12-22T15:43:05;6.00;99.90
14144;DHT22;7152;48.348;10.980;2023-12-22T15:45:31;6.10;99.90
14144;DHT22;7152;48.348;10.980;2023-12-22T15:47:57;6.10;99.90
14144;DHT22;7152;48.348;10.980;2023-12-22T15:50:23;6.20;99.90
14144;DHT22;7152;48.348;10.980;2023-12-22T15:52:48;6.20;99.90
14144;DHT22;7152;48.348;10.980;2023-12-22T15:55:16;6.20;99.90
14144;DHT22;7152;48.348;10.980;2023-12-22T15:57:41;6.30;99.90
14144;DHT22;7152;48.348;10.980;2023-12-22T16:00:08;6.30;99.90
14144;DHT22;7152;48.348;10.980;2023-12-22T16:02:35;6.30;99.90
14144;DHT22;7152;48.348;10.980;2023-12-22T16:05:04;6.30;99.90
14144;DHT22;7152;48.348;10.980;2023-12-22T16:07:30;6.30;99.90
14144;DHT22;7152;48.348;10.980;2023-12-22T16:09:56;6.40;99.90
14144;DHT22;7152;48.348;10.980;2023-12-22T16:12:21;6.40;99.90
14144;DHT22;7152;48.348;10.980;2023-12-22T16:14:47;6.40;99.90
14144;DHT22;7152;48.348;10.980;2023-12-22T16:17:13;6.40;99.90
14144;DHT22;7152;48.348;10.980;2023-12-22T16:19:39;6.40;99.90
14144;DHT22;7152;48.348;10.980;2023-12-22T16:22:06;6.40;99.90
14144;DHT22;7152;48.348;10.980;2023-12-22T16:24:32;6.50;99.90
14144;DHT22;7152;48.348;10.980;2023-12-22T16:26:58;6.50;99.90
14144;DHT22;7152;48.348;10.980;2023-12-22T16:29:24;6.50;99.90
14144;DHT22;7152;48.348;10.980;2023-12-22T16:31:50;6.60;99.90
14144;DHT22;7152;48.348;10.980;2023-12-22T16:34:16;6.60;99.90
14144;DHT22;7152;48.348;10.980;2023-12-22T16:36:44;6.50;99.90
14144;DHT22;7152;48.348;10.980;2023-12-22T16:39:11;6.60;99.90
14144;DHT22;7152;48.348;10.980;2023-12-22T16:41:37;6.50;99.90
14144;DHT22;7152;48.348;10.980;2023-12-22T16:44:05;6.60;99.90
14144;DHT22;7152;48.348;10.980;2023-12-22T16:46:31;6.60;99.90
14144;DHT22;7152;48.348;10.980;2023-12-22T16:48:57;6.60;99.90
14144;DHT22;7152;48.348;10.980;2023-12-22T16:51:23;6.60;99.90
14144;DHT22;7152;48.348;10.980;2023-12-22T16:53:49;6.60;99.90
14144;DHT22;7152;48.348;10.980;2023-12-22T16:56:15;6.60;99.90
14144;DHT22;7152;48.348;10.980;2023-12-22T16:58:41;6.60;99.90
14144;DHT22;7152;48.348;10.980;2023-12-22T17:01:06;6.60;99.90
14144;DHT22;7152;48.348;10.980;2023-12-22T17:03:33;6.60;99.90
14144;DHT22;7152;48.348;10.980;2023-12-22T17:06:01;6.70;99.90
14144;DHT22;7152;48.348;10.980;2023-12-22T17:08:28;6.70;99.90
14144;DHT22;7152;48.348;10.980;2023-12-22T17:10:54;6.70;99.90
14144;DHT22;7152;48.348;10.980;2023-12-22T17:13:20;6.70;99.90
14144;DHT22;7152;48.348;10.980;2023-12-22T17:15:45;6.70;99.90
14144;DHT22;7152;48.348;10.980;2023-12-22T17:18:11;6.70;99.90
14144;DHT22;7152;48.348;10.980;2023-12-22T17:20:37;6.70;99.90
14144;DHT22;7152;48.348;10.980;2023-12-22T17:23:03;6.70;99.90
14144;DHT22;7152;48.348;10.980;2023-12-22T17:25:29;6.70;99.90
14144;DHT22;7152;48.348;10.980;2023-12-22T17:27:55;6.70;99.90
14144;DHT22;7152;48.348;10.980;2023-12-22T17:30:20;6.70;99.90
14144;DHT22;7152;48.348;10.980;2023-12-22T17:32:51;6.70;99.90
14144;DHT22;7152;48.348;10.980;2023-12-22T17:35:18;6.70;99.90
14144;DHT22;7152;48.348;10.980;2023-12-22T17:37:44;6.70;99.90
14144;DHT22;7152;48.348;10.980;2023-12-22T17:40:10;6.70;99.90
14144;DHT22;7152;48.348;10.980;2023-12-22T17:42:36;6.70;99.90
14144;DHT22;7152;48.348;10.980;2023-12-22T17:45:03;6.80;99.90
14144;DHT22;7152;48.348;10.980;2023-12-22T17:47:29;6.80;99.90
14144;DHT22;7152;48.348;10.980;2023-12-22T17:49:55;6.80;99.90
14144;DHT22;7152;48.348;10.980;2023-12-22T17:52:21;6.80;99.90
14144;DHT22;7152;48.348;10.980;2023-12-22T17:54:47;6.80;99.90
14144;DHT22;7152;48.348;10.980;2023-12-22T17:57:12;6.80;99.90
14144;DHT22;7152;48.348;10.980;2023-12-22T17:59:40;6.80;99.90
14144;DHT22;7152;48.348;10.980;2023-12-22T18:02:07;6.80;99.90
14144;DHT22;7152;48.348;10.980;2023-12-22T18:04:33;6.80;99.90
14144;DHT22;7152;48.348;10.980;2023-12-22T18:06:59;6.70;99.90
14144;DHT22;7152;48.348;10.980;2023-12-22T18:09:28;6.70;99.90
14144;DHT22;7152;48.348;10.980;2023-12-22T18:11:53;6.70;99.90
14144;DHT22;7152;48.348;10.980;2023-12-22T18:14:19;6.70;99.90
14144;DHT22;7152;48.348;10.980;2023-12-22T18:16:45;6.70;99.90
14144;DHT22;7152;48.348;10.980;2023-12-22T18:19:11;6.70;99.90
14144;DHT22;7152;48.348;10.980;2023-12-22T18:21:37;6.70;99.90
14144;DHT22;7152;48.348;10.980;2023-12-22T18:24:04;6.70;99.90
14144;DHT22;7152;48.348;10.980;2023-12-22T18:26:30;6.70;99.90
14144;DHT22;7152;48.348;10.980;2023-12-22T18:28:55;6.70;99.90
14144;DHT22;7152;48.348;10.980;2023-12-22T18:31:22;6.70;99.90
14144;DHT22;7152;48.348;10.980;2023-12-22T18:33:48;6.80;99.90
14144;DHT22;7152;48.348;10.980;2023-12-22T18:36:14;6.80;99.90
14144;DHT22;7152;48.348;10.980;2023-12-22T18:38:39;6.80;99.90
14144;DHT22;7152;48.348;10.980;2023-12-22T18:41:07;6.80;99.90
14144;DHT22;7152;48.348;10.980;2023-12-22T18:43:33;6.80;99.90
14144;DHT22;7152;48.348;10.980;2023-12-22T18:45:59;6.80;99.90
14144;DHT22;7152;48.348;10.980;2023-12-22T18:48:25;6.80;99.90
14144;DHT22;7152;48.348;10.980;2023-12-22T18:50:50;6.80;99.90
14144;DHT22;7152;48.348;10.980;2023-12-22T18:53:16;6.80;99.90
14144;DHT22;7152;48.348;10.980;2023-12-22T18:55:42;6.80;99.90
14144;DHT22;7152;48.348;10.980;2023-12-22T18:58:08;6.90;99.90
14144;DHT22;7152;48.348;10.980;2023-12-22T19:00:34;6.80;99.90
14144;DHT22;7152;48.348;10.980;2023-12-22T19:03:00;6.80;99.90
14144;DHT22;7152;48.348;10.980;2023-12-22T19:05:25;6.80;99.90
14144;DHT22;7152;48.348;10.980;2023-12-22T19:07:51;6.80;99.90
14144;DHT22;7152;48.348;10.980;2023-12-22T19:10:17;6.80;99.90
14144;DHT22;7152;48.348;10.980;2023-12-22T19:12:43;6.80;99.90
14144;DHT22;7152;48.348;10.980;2023-12-22T19:15:11;6.80;99.90
14144;DHT22;7152;48.348;10.980;2023-12-22T19:17:37;6.80;99.90
14144;DHT22;7152;48.348;10.980;2023-12-22T19:20:06;6.80;99.90
14144;DHT22;7152;48.348;10.980;2023-12-22T19:22:32;6.80;99.90
14144;DHT22;7152;48.348;10.980;2023-12-22T19:24:59;6.80;99.90
14144;DHT22;7152;48.348;10.980;2023-12-22T19:27:25;6.80;99.90
14144;DHT22;7152;48.348;10.980;2023-12-22T19:29:51;6.80;99.90
14144;DHT22;7152;48.348;10.980;2023-12-22T19:32:17;6.80;99.90
14144;DHT22;7152;48.348;10.980;2023-12-22T19:34:43;6.80;99.90
14144;DHT22;7152;48.348;10.980;2023-12-22T19:37:10;6.80;99.90
14144;DHT22;7152;48.348;10.980;2023-12-22T19:39:36;6.80;99.90
14144;DHT22;7152;48.348;10.980;2023-12-22T19:42:02;6.80;99.90
14144;DHT22;7152;48.348;10.980;2023-12-22T19:44:28;6.80;99.90
14144;DHT22;7152;48.348;10.980;2023-12-22T19:46:54;6.80;99.90
14144;DHT22;7152;48.348;10.980;2023-12-22T19:49:20;6.80;99.90
14144;DHT22;7152;48.348;10.980;2023-12-22T19:51:48;6.80;99.90
14144;DHT22;7152;48.348;10.980;2023-12-22T19:54:14;6.80;99.90
14144;DHT22;7152;48.348;10.980;2023-12-22T19:56:40;6.90;99.90
14144;DHT22;7152;48.348;10.980;2023-12-22T19:59:06;6.90;99.90
14144;DHT22;7152;48.348;10.980;2023-12-22T20:01:32;6.90;99.90
14144;DHT22;7152;48.348;10.980;2023-12-22T20:03:58;6.90;99.90
14144;DHT22;7152;48.348;10.980;2023-12-22T20:06:26;6.90;99.90
14144;DHT22;7152;48.348;10.980;2023-12-22T20:08:53;6.90;99.90
14144;DHT22;7152;48.348;10.980;2023-12-22T20:11:18;6.90;99.90
14144;DHT22;7152;48.348;10.980;2023-12-22T20:13:44;6.90;99.90
14144;DHT22;7152;48.348;10.980;2023-12-22T20:16:10;6.90;99.90
14144;DHT22;7152;48.348;10.980;2023-12-22T20:18:39;6.90;99.90
14144;DHT22;7152;48.348;10.980;2023-12-22T20:21:05;6.90;99.90
14144;DHT22;7152;48.348;10.980;2023-12-22T20:23:31;6.90;99.90
14144;DHT22;7152;48.348;10.980;2023-12-22T20:25:57;6.80;99.90
14144;DHT22;7152;48.348;10.980;2023-12-22T20:28:23;6.90;99.90
14144;DHT22;7152;48.348;10.980;2023-12-22T20:30:51;6.80;99.90
14144;DHT22;7152;48.348;10.980;2023-12-22T20:33:17;6.80;99.90
14144;DHT22;7152;48.348;10.980;2023-12-22T20:35:43;6.80;99.90
14144;DHT22;7152;48.348;10.980;2023-12-22T20:38:09;6.80;99.90
14144;DHT22;7152;48.348;10.980;2023-12-22T20:40:34;6.70;99.90
14144;DHT22;7152;48.348;10.980;2023-12-22T20:43:00;6.80;99.90
14144;DHT22;7152;48.348;10.980;2023-12-22T20:45:26;6.70;99.90
14144;DHT22;7152;48.348;10.980;2023-12-22T20:47:52;6.70;99.90
14144;DHT22;7152;48.348;10.980;2023-12-22T20:50:18;6.70;99.90
14144;DHT22;7152;48.348;10.980;2023-12-22T20:52:44;6.70;99.90
14144;DHT22;7152;48.348;10.980;2023-12-22T20:55:15;6.70;99.90
14144;DHT22;7152;48.348;10.980;2023-12-22T20:57:40;6.70;99.90
14144;DHT22;7152;48.348;10.980;2023-12-22T21:00:07;6.70;99.90
14144;DHT22;7152;48.348;10.980;2023-12-22T21:02:34;6.70;99.90
14144;DHT22;7152;48.348;10.980;2023-12-22T21:05:01;6.60;99.90
14144;DHT22;7152;48.348;10.980;2023-12-22T21:07:27;6.60;99.90
14144;DHT22;7152;48.348;10.980;2023-12-22T21:09:53;6.60;99.90
14144;DHT22;7152;48.348;10.980;2023-12-22T21:12:20;6.70;99.90
14144;DHT22;7152;48.348;10.980;2023-12-22T21:14:46;6.60;99.90
14144;DHT22;7152;48.348;10.980;2023-12-22T21:17:12;6.70;99.90
14144;DHT22;7152;48.348;10.980;2023-12-22T21:19:38;6.70;99.90
14144;DHT22;7152;48.348;10.980;2023-12-22T21:22:04;6.70;99.90
14144;DHT22;7152;48.348;10.980;2023-12-22T21:24:30;6.70;99.90
14144;DHT22;7152;48.348;10.980;2023-12-22T21:26:58;6.70;99.90
14144;DHT22;7152;48.348;10.980;2023-12-22T21:29:24;6.70;99.90
14144;DHT22;7152;48.348;10.980;2023-12-22T21:31:50;6.70;99.90
14144;DHT22;7152;48.348;10.980;2023-12-22T21:34:16;6.70;99.90
14144;DHT22;7152;48.348;10.980;2023-12-22T21:36:42;6.60;99.90
14144;DHT22;7152;48.348;10.980;2023-12-22T21:39:08;6.60;99.90
14144;DHT22;7152;48.348;10.980;2023-12-22T21:41:35;6.60;99.90
14144;DHT22;7152;48.348;10.980;2023-12-22T21:44:00;6.70;99.90
14144;DHT22;7152;48.348;10.980;2023-12-22T21:46:26;6.60;99.90
14144;DHT22;7152;48.348;10.980;2023-12-22T21:48:52;6.60;99.90
14144;DHT22;7152;48.348;10.980;2023-12-22T21:51:22;6.60;99.90
14144;DHT22;7152;48.348;10.980;2023-12-22T21:53:50;6.60;99.90
14144;DHT22;7152;48.348;10.980;2023-12-22T21:56:20;6.70;99.90
14144;DHT22;7152;48.348;10.980;2023-12-22T21:58:46;6.60;99.90
14144;DHT22;7152;48.348;10.980;2023-12-22T22:01:12;6.60;99.90
14144;DHT22;7152;48.348;10.980;2023-12-22T22:03:38;6.60;99.90
14144;DHT22;7152;48.348;10.980;2023-12-22T22:06:04;6.60;99.90
14144;DHT22;7152;48.348;10.980;2023-12-22T22:08:30;6.60;99.90
14144;DHT22;7152;48.348;10.980;2023-12-22T22:10:56;6.60;99.90
14144;DHT22;7152;48.348;10.980;2023-12-22T22:13:22;6.60;99.90
14144;DHT22;7152;48.348;10.980;2023-12-22T22:15:48;6.60;99.90
14144;DHT22;7152;48.348;10.980;2023-12-22T22:18:16;6.50;99.90
14144;DHT22;7152;48.348;10.980;2023-12-22T22:20:42;6.60;99.90
14144;DHT22;7152;48.348;10.980;2023-12-22T22:23:08;6.50;99.90
14144;DHT22;7152;48.348;10.980;2023-12-22T22:25:34;6.60;99.90
14144;DHT22;7152;48.348;10.980;2023-12-22T22:28:01;6.60;99.90
14144;DHT22;7152;48.348;10.980;2023-12-22T22:30:27;6.60;99.90
14144;DHT22;7152;48.348;10.980;2023-12-22T22:32:56;6.50;99.90
14144;DHT22;7152;48.348;10.980;2023-12-22T22:35:22;6.50;99.90
14144;DHT22;7152;48.348;10.980;2023-12-22T22:37:48;6.60;99.90
14144;DHT22;7152;48.348;10.980;2023-12-22T22:40:14;6.60;99.90
14144;DHT22;7152;48.348;10.980;2023-12-22T22:42:40;6.60;99.90
14144;DHT22;7152;48.348;10.980;2023-12-22T22:45:06;6.60;99.90
14144;DHT22;7152;48.348;10.980;2023-12-22T22:47:32;6.60;99.90
14144;DHT22;7152;48.348;10.980;2023-12-22T22:49:58;6.60;99.90
14144;DHT22;7152;48.348;10.980;2023-12-22T22:52:24;6.60;99.90
14144;DHT22;7152;48.348;10.980;2023-12-22T22:54:50;6.60;99.90
